Accueil
METAR-TAF:

METAR-TAF

Aéroports :

Winter Haven's Gilbert Airport

Winter Haven, Floride, États-Unis

latitude: 28-03-38N, longitude: 081-45-27W, altitude: 44 m

Observation

Le bulletin a été fait il y a 1 heure et 1 minutes, à 06:53 UTC
Vent 5 kt de est/nord-est
Température 22°C
Humidité 88%
Pression 1019 hPa
Ciel clair

METAR: KGIF 290653Z AUTO 07005KT CLR 22/20 A3009 RMK AO2 SLP186 T02220200 $

Heure: 03:54 (07:54 UTC)


TAF: absent

Observations et prévisions météorologiques de plus de 4000 aéroports (messages METAR et TAF).

Les stations disponibles sont représentées par des disques jaunes et rouges sur la carte.

Passer la souris dessus pour voir le nom de la station.

Cliquer dessus pour voir les observations et prévisions météorologiques.

Pour changer de carte: cliquez sur les boutons verts avec une croix noire pour zoomer, sur le bouton vert avec un tiret pour effectuer un zoom arrière, ou sur les flèches vertes pour les cartes adjacentes.


METAR-TAF: